South Haven, Kansas
Current Conditions -  °F | °C
As of 7:35 PM on Thursday 27 Nov 2014 (Local Time) from KBKN Reporting Station
Few Clouds Few Clouds  
Wind Chill: 32°   Ceiling: Unl
Heat Index: 37°   Visibility: 10mi
Dew Point: 21°   Wind: 7mph
Humidity: 52%   Direction: 140°SE
Pressure: 30.3"   Gusts: NA
Location:  37.05°N, 97.41°W
Report Text: KBKN 280135Z AUTO 14006KT 10SM FEW044 03/M06 A3030 RMK AO2
Loading
Personal Weather Stations






























Interactive Weather Map New forecast layout! Learn more

10-Day Weather Forecast

Advertisements
Track Severe Weather on mobile